| time (UTC) | temp F | wind direction | speed knots | gust knots | rain 1hr in | rain 24hr in | rain mn in | humidity % | barometer mb |
| 20260507032804 | 0 | 315 | 0.9 | 1.7 | 0.00 | 0.00 | 0.00 | 33 | 1010.6 |
| 20260506163505 | 0 | 270 | 7.0 | 7.8 | 0.00 | 0.00 | 0.00 | 30 | 1013.8 |
| 20260506153628 | 0 | 270 | 6.1 | 7.8 | 0.00 | 0.00 | 0.00 | 30 | 1014.7 |
| 20260506152806 | 0 | 270 | 1.7 | 7.0 | 0.00 | 0.00 | 0.00 | 31 | 1014.7 |
| 20260506151122 | 0 | 270 | 3.5 | 7.8 | 0.00 | 0.00 | 0.00 | 30 | 1015.0 |
| 20260506144615 | 0 | 0 | 5.2 | 7.0 | 0.00 | 0.00 | 0.00 | 30 | 1015.4 |
| 20260506143753 | 0 | 0 | 7.0 | 7.0 | 0.00 | 0.00 | 0.00 | 30 | 1015.6 |
| 20260506142108 | 0 | 0 | 0.0 | 0.0 | 0.00 | 0.00 | 0.00 | 30 | 1015.8 |
| 20260506141245 | 0 | 0 | 0.0 | 0.0 | 0.00 | 0.00 | 0.00 | 30 | 1015.9 |
| 20260506140422 | 0 | 0 | 0.0 | 0.0 | 0.00 | 0.00 | 0.00 | 30 | 1016.0 |
| 20260506134739 | 0 | 0 | 0.0 | 0.0 | 0.00 | 0.00 | 0.00 | 30 | 1016.3 |
| 20260506133054 | 0 | 0 | 0.0 | 0.0 | 0.00 | 0.00 | 0.00 | 30 | 1016.3 |
| 20260506132232 | 0 | 0 | 0.0 | 0.0 | 0.00 | 0.00 | 0.00 | 30 | 1016.3 |
| 20260506131409 | 0 | 0 | 0.0 | 0.0 | 0.00 | 0.00 | 0.00 | 30 | 1016.6 |
| 20260506125725 | 0 | 0 | 0.0 | 0.0 | 0.00 | 0.00 | 0.00 | 30 | 1016.5 |
| 20260506124040 | 0 | 0 | 0.0 | 0.0 | 0.00 | 0.00 | 0.00 | 30 | 1016.7 |
| 20260506123218 | 0 | 0 | 0.0 | 0.0 | 0.00 | 0.00 | 0.00 | 30 | 1016.8 |
| 20260506114204 | 0 | 0 | 0.0 | 0.0 | 0.00 | 0.00 | 0.00 | 30 | 1017.0 |
| 20260506113343 | 0 | 0 | 0.0 | 0.0 | 0.00 | 0.00 | 0.00 | 30 | 1017.2 |
| 20260506111657 | 0 | 0 | 0.0 | 0.0 | 0.00 | 0.00 | 0.00 | 30 | 1017.2 |
| 20260506103506 | 0 | 0 | 0.0 | 0.0 | 0.00 | 0.00 | 0.00 | 30 | 1017.8 |
| 20260506102643 | 0 | 0 | 0.0 | 0.0 | 0.00 | 0.00 | 0.00 | 30 | 1017.8 |
| 20260506095314 | 0 | 0 | 0.0 | 0.0 | 0.00 | 0.00 | 0.00 | 30 | 1018.2 |
| 20260506094452 | 0 | 0 | 0.0 | 0.0 | 0.00 | 0.00 | 0.00 | 30 | 1018.5 |
| 20260506093629 | 0 | 0 | 0.0 | 0.0 | 0.00 | 0.00 | 0.00 | 30 | 1018.5 |
| 20260506085438 | 0 | 0 | 0.0 | 0.0 | 0.00 | 0.00 | 0.00 | 30 | 1019.0 |
| 20260506084616 | 0 | 0 | 0.0 | 0.0 | 0.00 | 0.00 | 0.00 | 30 | 1019.1 |
| 20260506083753 | 0 | 0 | 0.0 | 0.0 | 0.00 | 0.00 | 0.00 | 30 | 1019.2 |
| 20260506082931 | 0 | 0 | 0.0 | 0.0 | 0.00 | 0.00 | 0.00 | 30 | 1019.2 |
| 20260506081246 | 0 | 0 | 0.0 | 0.0 | 0.00 | 0.00 | 0.00 | 30 | 1019.5 |
| 20260506073055 | 0 | 0 | 0.9 | 4.3 | 0.00 | 0.00 | 0.00 | 30 | 1019.8 |
| 20260506062356 | 0 | 0 | 0.0 | 0.0 | 0.00 | 0.00 | 0.00 | 30 | 1020.4 |